Time;durP1;ratioP1;P1;durP2;ratioP2;P2;SDS_P1;SDS_P2;PMS_P1;PMS_P2;Temp;Humidity;BMP_temperature;BMP_pressure;BME280_temperature;BME280_humidity;BME280_pressure;Samples;Min_cycle;Max_cycle;Signal;HPM_P1;HPM_P2
2021/03/23 00:00:41;;;;;;;14.60;10.20;;;7.60;99.90;;;;;;5095226;28;20413;-62
2021/03/23 00:03:15;;;;;;;15.20;9.67;;;7.60;99.90;;;;;;5095585;28;20437;-62
2021/03/23 00:05:42;;;;;;;12.17;9.30;;;7.60;99.90;;;;;;5095155;28;20446;-62
2021/03/23 00:08:25;;;;;;;11.70;8.40;;;7.70;99.90;;;;;;5094978;28;20554;-62
2021/03/23 00:10:51;;;;;;;16.73;9.23;;;7.90;99.90;;;;;;5095285;28;20518;-62
2021/03/23 00:13:17;;;;;;;13.60;9.50;;;8.00;99.90;;;;;;5095403;28;20453;-62
2021/03/23 00:15:43;;;;;;;11.40;8.90;;;8.00;99.90;;;;;;5095471;28;20496;-62
2021/03/23 00:18:10;;;;;;;15.87;9.87;;;7.90;99.90;;;;;;5095663;28;20185;-62
2021/03/23 00:20:35;;;;;;;14.83;8.93;;;7.90;99.90;;;;;;5095676;28;20403;-62
2021/03/23 00:23:01;;;;;;;14.23;10.10;;;7.80;99.90;;;;;;5095254;28;20486;-62
2021/03/23 00:25:26;;;;;;;12.33;9.30;;;7.40;99.90;;;;;;5086916;28;20197;-62
2021/03/23 00:27:52;;;;;;;12.87;9.17;;;7.70;99.90;;;;;;5079322;28;20194;-62
2021/03/23 00:30:18;;;;;;;11.80;9.40;;;7.60;99.90;;;;;;5076076;28;20176;-62
2021/03/23 00:32:43;;;;;;;12.20;9.63;;;7.60;99.90;;;;;;5078873;28;20651;-62
2021/03/23 00:35:11;;;;;;;14.23;9.50;;;7.70;99.90;;;;;;5081925;28;20412;-62
2021/03/23 00:37:38;;;;;;;13.50;9.70;;;7.80;99.90;;;;;;5078726;28;20235;-62
2021/03/23 00:40:07;;;;;;;10.43;8.93;;;7.80;99.90;;;;;;5075455;28;20431;-63
2021/03/23 00:42:34;;;;;;;11.80;9.90;;;7.90;99.90;;;;;;5074294;28;20939;-62
2021/03/23 00:45:00;;;;;;;17.70;11.03;;;7.80;99.90;;;;;;5074399;28;20526;-63
2021/03/23 00:47:26;;;;;;;12.10;9.93;;;7.80;99.90;;;;;;5074202;28;20432;-62
2021/03/23 00:49:51;;;;;;;12.40;9.70;;;7.60;99.90;;;;;;5074198;28;20400;-64
2021/03/23 00:52:17;;;;;;;12.43;9.43;;;7.60;99.90;;;;;;5076152;28;20173;-62
2021/03/23 00:54:42;;;;;;;13.53;9.83;;;7.70;99.90;;;;;;5076732;28;20165;-62
2021/03/23 00:57:08;;;;;;;17.03;10.17;;;7.70;99.90;;;;;;5094214;28;20189;-63
2021/03/23 00:59:34;;;;;;;18.17;11.50;;;7.70;99.90;;;;;;5094628;28;20534;-62
2021/03/23 01:01:59;;;;;;;19.33;11.90;;;7.50;99.90;;;;;;5094229;28;20662;-62
2021/03/23 01:04:25;;;;;;;12.60;10.70;;;7.50;99.90;;;;;;5094496;28;20175;-62
2021/03/23 01:06:50;;;;;;;13.03;10.50;;;7.50;99.90;;;;;;5094775;28;20669;-62
2021/03/23 01:09:16;;;;;;;17.30;10.83;;;7.40;99.90;;;;;;5093878;28;20166;-63
2021/03/23 01:11:41;;;;;;;14.13;12.00;;;7.50;99.90;;;;;;5094024;28;20166;-62
2021/03/23 01:14:07;;;;;;;13.50;10.63;;;7.70;99.90;;;;;;5094005;28;20540;-63
2021/03/23 01:16:33;;;;;;;12.57;9.77;;;7.70;99.90;;;;;;5093932;28;20173;-62
2021/03/23 01:19:00;;;;;;;15.10;10.17;;;7.70;99.90;;;;;;5086769;28;20193;-63
2021/03/23 01:21:26;;;;;;;14.90;10.50;;;7.70;99.90;;;;;;5055622;28;20677;-62
2021/03/23 01:23:52;;;;;;;15.33;11.60;;;7.60;99.90;;;;;;5073585;28;20404;-62
2021/03/23 01:26:17;;;;;;;12.07;10.63;;;7.60;99.90;;;;;;5090060;28;20446;-63
2021/03/23 01:28:43;;;;;;;16.80;10.60;;;7.60;99.90;;;;;;5094046;28;20234;-62
2021/03/23 01:31:08;;;;;;;17.00;11.67;;;7.60;99.90;;;;;;5093988;28;20173;-62
2021/03/23 01:33:34;;;;;;;14.33;10.97;;;7.60;99.90;;;;;;5094629;28;20176;-62
2021/03/23 01:36:00;;;;;;;14.60;10.97;;;7.70;99.90;;;;;;5093691;28;20202;-62
2021/03/23 01:38:25;;;;;;;15.77;10.50;;;7.60;99.90;;;;;;5093122;28;20206;-63
2021/03/23 01:40:51;;;;;;;17.00;11.23;;;7.70;99.90;;;;;;5093535;28;20210;-63
2021/03/23 01:43:24;;;;;;;13.57;10.67;;;7.70;99.90;;;;;;5093598;28;20170;-63
2021/03/23 01:45:50;;;;;;;14.53;10.33;;;7.80;99.90;;;;;;5093943;28;20214;-63
2021/03/23 01:48:22;;;;;;;17.50;11.40;;;7.90;99.90;;;;;;5080541;28;20464;-61
2021/03/23 01:50:55;;;;;;;19.50;12.00;;;7.90;99.90;;;;;;5093841;28;20380;-63
2021/03/23 01:53:33;;;;;;;19.00;13.10;;;7.60;99.90;;;;;;5093410;28;20483;-63
2021/03/23 01:56:00;;;;;;;17.20;10.80;;;7.60;99.90;;;;;;5079741;28;20400;-63
2021/03/23 01:58:27;;;;;;;17.73;11.50;;;7.70;99.90;;;;;;5073120;28;20432;-63
2021/03/23 02:00:53;;;;;;;17.03;12.30;;;7.90;99.90;;;;;;5055327;28;20420;-62
2021/03/23 02:03:20;;;;;;;17.70;14.00;;;7.80;99.90;;;;;;5073428;28;20432;-62
2021/03/23 02:05:58;;;;;;;20.77;15.00;;;7.60;99.90;;;;;;5073330;28;20448;-62
2021/03/23 02:08:24;;;;;;;21.97;14.57;;;7.50;99.90;;;;;;5072754;28;20447;-62
2021/03/23 02:10:52;;;;;;;25.97;16.83;;;7.50;99.90;;;;;;5072834;28;20390;-62
2021/03/23 02:13:18;;;;;;;23.43;15.67;;;7.40;99.90;;;;;;5073207;28;20761;-62
2021/03/23 02:15:43;;;;;;;21.80;15.20;;;7.50;99.90;;;;;;5073209;28;20416;-62
2021/03/23 02:18:15;;;;;;;20.53;15.20;;;7.50;99.90;;;;;;5072894;28;20189;-63
2021/03/23 02:20:59;;;;;;;21.57;16.80;;;7.50;99.90;;;;;;5072911;28;20219;-62
2021/03/23 02:23:41;;;;;;;22.37;16.13;;;7.50;99.90;;;;;;5072619;28;20968;-62
2021/03/23 02:26:10;;;;;;;28.80;19.07;;;7.60;99.90;;;;;;5087576;28;20456;-62
2021/03/23 02:28:53;;;;;;;27.23;17.77;;;7.60;99.90;;;;;;5093245;28;20895;-63
2021/03/23 02:31:24;;;;;;;30.70;18.97;;;7.70;99.90;;;;;;5093025;28;20380;-63
2021/03/23 02:33:50;;;;;;;24.50;19.03;;;7.70;99.90;;;;;;5093385;28;20394;-62
2021/03/23 02:36:16;;;;;;;27.63;18.83;;;7.70;99.90;;;;;;5093068;28;20400;-62
2021/03/23 02:38:41;;;;;;;32.10;19.60;;;7.70;99.90;;;;;;5092727;28;20205;-62
2021/03/23 02:41:07;;;;;;;25.97;19.23;;;7.60;99.90;;;;;;5092722;28;20763;-63
2021/03/23 02:43:33;;;;;;;23.43;18.17;;;7.80;99.90;;;;;;5092955;28;20573;-62
2021/03/23 02:45:59;;;;;;;25.53;18.40;;;7.90;99.90;;;;;;5093129;28;20843;-63
2021/03/23 02:48:25;;;;;;;20.83;17.70;;;7.90;99.90;;;;;;5093087;28;20646;-63
2021/03/23 02:50:50;;;;;;;27.33;18.13;;;7.90;99.90;;;;;;5093164;28;20536;-62
2021/03/23 02:53:16;;;;;;;24.77;20.17;;;7.80;99.90;;;;;;5074473;28;20411;-62
2021/03/23 02:55:45;;;;;;;28.37;18.57;;;7.80;99.90;;;;;;5092797;28;20167;-62
2021/03/23 02:58:10;;;;;;;27.53;20.87;;;7.80;99.90;;;;;;5092968;28;20260;-62
2021/03/23 03:00:36;;;;;;;26.73;19.93;;;7.70;99.90;;;;;;5093295;28;20907;-62
2021/03/23 03:03:01;;;;;;;28.07;18.53;;;7.90;99.90;;;;;;5096463;28;20168;-62
2021/03/23 03:05:27;;;;;;;30.63;21.70;;;7.80;99.90;;;;;;5096669;28;20205;-62
2021/03/23 03:07:53;;;;;;;27.10;20.40;;;7.70;99.90;;;;;;5096140;28;20201;-63
2021/03/23 03:10:18;;;;;;;30.07;21.50;;;7.70;99.90;;;;;;5096386;28;20173;-63
2021/03/23 03:12:44;;;;;;;27.67;20.07;;;7.80;99.90;;;;;;5096576;28;20166;-63
2021/03/23 03:15:10;;;;;;;28.40;19.90;;;7.80;99.90;;;;;;5096337;28;20173;-62
2021/03/23 03:17:36;;;;;;;27.00;18.13;;;7.60;99.90;;;;;;5077293;28;20190;-62
2021/03/23 03:20:03;;;;;;;28.87;19.70;;;7.50;99.90;;;;;;5075967;28;20874;-62
2021/03/23 03:22:29;;;;;;;30.40;20.13;;;7.50;99.90;;;;;;5076206;28;20254;-63
2021/03/23 03:24:54;;;;;;;28.77;20.17;;;7.70;99.90;;;;;;5075421;28;20888;-63
2021/03/23 03:27:20;;;;;;;29.27;19.43;;;7.70;99.90;;;;;;5075863;28;20198;-63
2021/03/23 03:29:45;;;;;;;25.70;19.00;;;7.30;99.90;;;;;;5075930;28;20166;-63
2021/03/23 03:32:11;;;;;;;23.03;19.13;;;7.30;99.90;;;;;;5076433;28;20566;-62
2021/03/23 03:34:37;;;;;;;29.73;19.67;;;7.50;99.90;;;;;;5075888;28;20167;-63
2021/03/23 03:39:34;;;;;;;30.57;19.53;;;7.70;99.90;;;;;;5051391;28;20220;-65
2021/03/23 03:42:00;;;;;;;28.30;19.97;;;7.60;99.90;;;;;;5035443;28;20398;-63
2021/03/23 03:44:26;;;;;;;30.43;20.30;;;7.60;99.90;;;;;;5035591;28;20261;-63
2021/03/23 03:46:51;;;;;;;30.83;22.50;;;7.40;99.90;;;;;;5035992;28;20504;-63
2021/03/23 03:49:17;;;;;;;27.10;20.60;;;7.30;99.90;;;;;;5035574;28;20274;-63
2021/03/23 03:51:43;;;;;;;27.53;20.27;;;7.40;99.90;;;;;;5035415;28;20600;-63
2021/03/23 03:54:08;;;;;;;28.60;19.97;;;7.50;99.90;;;;;;5035179;28;20916;-63
2021/03/23 03:56:34;;;;;;;29.07;20.57;;;7.70;99.90;;;;;;5035399;28;20218;-63
2021/03/23 03:59:00;;;;;;;29.77;20.50;;;7.70;99.90;;;;;;5035121;28;20340;-63
2021/03/23 04:01:25;;;;;;;29.57;21.50;;;7.70;99.90;;;;;;5036265;28;20175;-63
2021/03/23 04:03:51;;;;;;;28.60;19.60;;;7.70;99.90;;;;;;5035842;28;20517;-62
2021/03/23 04:06:16;;;;;;;25.90;19.53;;;7.70;99.90;;;;;;5036796;28;20298;-63
2021/03/23 04:08:42;;;;;;;29.23;20.97;;;7.60;99.90;;;;;;5044358;28;20285;-63
2021/03/23 04:11:10;;;;;;;30.47;20.53;;;7.70;99.90;;;;;;5054621;28;20170;-63
2021/03/23 04:13:36;;;;;;;24.33;19.30;;;7.80;99.90;;;;;;5054922;28;20167;-63
2021/03/23 04:16:01;;;;;;;28.33;20.40;;;7.50;99.90;;;;;;5055116;28;20466;-63
2021/03/23 04:18:28;;;;;;;26.77;19.87;;;7.70;99.90;;;;;;5054857;28;20197;-64
2021/03/23 04:20:55;;;;;;;25.10;18.63;;;7.80;99.90;;;;;;5054728;28;20171;-64
2021/03/23 04:23:30;;;;;;;26.53;19.67;;;7.90;99.90;;;;;;5054499;28;20401;-63
2021/03/23 04:25:56;;;;;;;30.07;21.10;;;7.70;99.90;;;;;;5054496;28;20478;-64
2021/03/23 04:28:22;;;;;;;28.33;20.87;;;7.70;99.90;;;;;;5054411;28;20543;-64
2021/03/23 04:30:49;;;;;;;22.57;16.43;;;7.70;99.90;;;;;;5052872;28;20508;-63
2021/03/23 04:33:17;;;;;;;27.60;19.17;;;7.70;99.90;;;;;;5054400;28;20171;-63
2021/03/23 04:35:57;;;;;;;28.17;21.20;;;7.80;99.90;;;;;;5054969;28;20441;-64
2021/03/23 04:38:29;;;;;;;27.40;19.23;;;7.60;99.90;;;;;;5052727;28;20452;-63
2021/03/23 04:40:57;;;;;;;29.47;19.60;;;7.60;99.90;;;;;;5054499;28;20770;-64
2021/03/23 04:43:28;;;;;;;29.00;22.20;;;7.50;99.90;;;;;;5053846;28;20428;-64
2021/03/23 04:45:54;;;;;;;31.07;21.40;;;7.60;99.90;;;;;;5054201;28;20437;-64
2021/03/23 04:48:21;;;;;;;29.23;20.70;;;7.60;99.90;;;;;;5054022;28;20433;-64
2021/03/23 04:50:47;;;;;;;26.40;19.50;;;7.50;99.90;;;;;;5036281;28;20629;-64
2021/03/23 04:53:33;;;;;;;31.07;20.10;;;7.70;99.90;;;;;;5052775;28;20419;-64
2021/03/23 04:56:00;;;;;;;32.63;20.60;;;7.80;99.90;;;;;;5036180;28;20891;-64
2021/03/23 04:58:27;;;;;;;27.57;20.37;;;7.90;99.90;;;;;;5053887;28;20510;-65
2021/03/23 05:00:53;;;;;;;28.43;19.47;;;7.80;99.90;;;;;;5053936;28;20858;-64
2021/03/23 05:03:22;;;;;;;31.60;21.57;;;7.60;99.90;;;;;;5053495;28;20411;-64
2021/03/23 05:05:52;;;;;;;30.13;19.87;;;7.60;99.90;;;;;;5053561;28;20453;-64
2021/03/23 05:08:18;;;;;;;31.60;21.20;;;7.60;99.90;;;;;;5053168;28;20940;-64
2021/03/23 05:10:44;;;;;;;31.50;21.03;;;7.40;99.90;;;;;;5053225;28;20405;-64
2021/03/23 05:13:09;;;;;;;30.30;21.83;;;7.40;99.90;;;;;;5053630;28;20595;-64
2021/03/23 05:15:35;;;;;;;30.83;20.07;;;7.50;99.90;;;;;;5053423;28;20171;-64
2021/03/23 05:18:01;;;;;;;30.87;21.43;;;7.60;99.90;;;;;;5055962;28;20219;-64
2021/03/23 05:20:26;;;;;;;26.83;19.87;;;7.60;99.90;;;;;;5053723;28;20170;-64
2021/03/23 05:22:52;;;;;;;30.23;20.60;;;7.40;99.90;;;;;;5034790;28;20229;-65
2021/03/23 05:25:18;;;;;;;31.27;21.30;;;7.40;99.90;;;;;;5052908;28;20683;-64
2021/03/23 05:27:44;;;;;;;31.40;21.27;;;7.50;99.90;;;;;;5053969;28;20429;-64
2021/03/23 05:30:10;;;;;;;30.27;20.20;;;7.60;99.90;;;;;;5053579;28;20425;-64
2021/03/23 05:32:36;;;;;;;34.27;20.97;;;7.70;99.90;;;;;;5053824;28;20223;-64
2021/03/23 05:35:04;;;;;;;26.67;19.53;;;7.50;99.90;;;;;;5053407;28;20405;-64
2021/03/23 05:37:29;;;;;;;28.97;21.10;;;7.50;99.90;;;;;;5053120;28;20214;-64
2021/03/23 05:39:55;;;;;;;30.73;21.07;;;7.60;99.90;;;;;;5053022;28;20393;-64
2021/03/23 05:42:26;;;;;;;27.00;19.53;;;7.60;99.90;;;;;;5053318;28;20174;-64
2021/03/23 05:45:14;;;;;;;26.30;20.43;;;7.60;99.90;;;;;;5052784;28;20163;-64
2021/03/23 05:47:42;;;;;;;32.17;22.53;;;7.70;99.90;;;;;;5051874;28;20896;-65
2021/03/23 05:50:14;;;;;;;33.83;21.50;;;7.30;99.90;;;;;;5053253;28;20909;-64
2021/03/23 05:52:47;;;;;;;27.10;19.87;;;7.30;99.90;;;;;;5053207;28;20378;-65
2021/03/23 05:55:43;;;;;;;32.47;21.90;;;7.30;99.90;;;;;;5052431;28;20404;-64
2021/03/23 05:58:20;;;;;;;29.10;19.80;;;7.40;99.90;;;;;;5053152;28;20413;-64
2021/03/23 06:00:56;;;;;;;30.80;21.07;;;7.60;99.90;;;;;;5053326;28;20439;-64
2021/03/23 06:03:33;;;;;;;31.00;20.87;;;7.60;99.90;;;;;;5053120;28;20489;-64
2021/03/23 06:06:19;;;;;;;31.57;21.73;;;7.60;99.90;;;;;;5052740;28;20799;-63
2021/03/23 06:08:48;;;;;;;29.97;20.83;;;7.70;99.90;;;;;;5052961;28;20996;-64
2021/03/23 06:11:22;;;;;;;35.53;22.83;;;7.60;99.90;;;;;;5052607;28;20488;-63
2021/03/23 06:14:12;;;;;;;34.90;21.97;;;7.40;99.90;;;;;;5052460;28;20441;-64
2021/03/23 06:16:49;;;;;;;27.73;21.27;;;7.20;99.90;;;;;;5052624;28;20496;-63
2021/03/23 06:19:27;;;;;;;30.53;21.37;;;7.10;99.90;;;;;;5052258;28;20440;-64
2021/03/23 06:21:55;;;;;;;32.70;21.53;;;7.30;99.90;;;;;;5052418;28;20981;-64
2021/03/23 06:24:29;;;;;;;29.80;21.03;;;7.20;99.90;;;;;;5052100;28;20413;-63
2021/03/23 06:27:25;;;;;;;32.83;21.63;;;7.30;99.90;;;;;;5052322;28;20466;-64
2021/03/23 06:30:19;;;;;;;28.43;21.10;;;7.40;99.90;;;;;;5052870;28;20405;-64
2021/03/23 06:32:51;;;;;;;32.37;22.83;;;7.40;99.90;;;;;;5041586;28;20420;-63
2021/03/23 06:35:22;;;;;;;31.77;21.90;;;7.30;99.90;;;;;;5054268;28;20416;-64
2021/03/23 06:37:48;;;;;;;33.37;22.67;;;7.40;99.90;;;;;;5056525;28;20449;-64
2021/03/23 06:40:21;;;;;;;32.70;21.77;;;7.40;99.90;;;;;;5056423;28;20398;-63
2021/03/23 06:42:53;;;;;;;40.37;24.07;;;7.50;99.90;;;;;;5056453;28;20174;-64
2021/03/23 06:45:37;;;;;;;32.27;23.27;;;7.60;99.90;;;;;;5056252;28;20523;-64
2021/03/23 06:48:21;;;;;;;36.97;24.20;;;7.60;99.90;;;;;;5055977;28;20494;-64
2021/03/23 06:50:48;;;;;;;35.10;25.90;;;7.60;99.90;;;;;;5056321;28;20500;-64
2021/03/23 06:53:20;;;;;;;33.50;22.87;;;7.80;99.90;;;;;;5055879;28;20899;-64
2021/03/23 06:55:50;;;;;;;32.53;21.10;;;7.60;99.90;;;;;;5055912;28;20402;-63
2021/03/23 06:58:34;;;;;;;37.70;24.13;;;7.70;99.90;;;;;;5054150;28;20803;-64
2021/03/23 07:01:22;;;;;;;33.47;22.77;;;7.80;99.90;;;;;;5056240;28;20429;-64
2021/03/23 07:03:51;;;;;;;40.50;23.47;;;7.90;99.90;;;;;;5056307;28;20385;-63
2021/03/23 07:06:30;;;;;;;32.50;22.87;;;8.00;99.90;;;;;;5055777;28;20922;-64
2021/03/23 07:09:19;;;;;;;30.03;21.27;;;8.10;99.90;;;;;;5055749;28;20453;-64
2021/03/23 07:11:50;;;;;;;40.40;23.47;;;8.30;99.90;;;;;;5056531;28;20844;-64
2021/03/23 07:14:27;;;;;;;32.90;23.17;;;8.20;99.90;;;;;;5071291;28;20401;-63
2021/03/23 07:17:20;;;;;;;34.30;22.23;;;8.10;99.90;;;;;;5076154;28;20931;-64
2021/03/23 07:19:47;;;;;;;29.30;21.43;;;8.20;99.90;;;;;;5044996;28;20412;-64
2021/03/23 07:22:30;;;;;;;29.90;22.27;;;8.20;99.90;;;;;;5075742;28;20405;-64
2021/03/23 07:24:58;;;;;;;34.53;23.27;;;8.40;99.90;;;;;;5059330;28;20435;-64
2021/03/23 07:27:26;;;;;;;37.63;23.47;;;8.50;99.90;;;;;;5074575;28;20417;-63
2021/03/23 07:30:28;;;;;;;30.00;20.90;;;8.40;99.90;;;;;;5055124;28;20482;-64
2021/03/23 07:33:00;;;;;;;36.03;23.97;;;8.60;99.90;;;;;;5055169;28;20398;-64
2021/03/23 07:35:33;;;;;;;33.73;22.93;;;8.50;99.90;;;;;;5055627;28;20383;-64
2021/03/23 07:38:11;;;;;;;32.57;22.83;;;8.70;99.90;;;;;;5055239;28;20450;-64
2021/03/23 07:40:41;;;;;;;33.70;22.83;;;8.40;99.90;;;;;;5055520;28;20411;-64
2021/03/23 07:43:25;;;;;;;30.17;22.70;;;8.50;99.90;;;;;;5054909;28;20602;-65
2021/03/23 07:45:58;;;;;;;29.40;22.23;;;8.70;99.90;;;;;;5054790;28;20443;-64
2021/03/23 07:48:38;;;;;;;36.60;23.90;;;8.60;99.90;;;;;;5055171;28;20426;-64
2021/03/23 07:51:15;;;;;;;34.50;23.17;;;8.70;99.90;;;;;;5055406;28;20385;-64
2021/03/23 07:53:42;;;;;;;33.10;24.03;;;8.50;99.90;;;;;;5055073;28;20384;-64
2021/03/23 07:56:29;;;;;;;32.83;22.67;;;8.50;99.90;;;;;;5055562;28;20407;-64
2021/03/23 07:59:27;;;;;;;31.57;23.27;;;8.50;99.90;;;;;;5053332;28;20788;-64
2021/03/23 08:01:56;;;;;;;32.00;21.97;;;8.60;99.90;;;;;;5054756;28;20390;-64
2021/03/23 08:04:52;;;;;;;36.17;23.77;;;8.70;99.90;;;;;;5055039;28;20408;-64
2021/03/23 08:07:27;;;;;;;37.17;23.40;;;8.50;99.90;;;;;;5054596;28;20484;-64
2021/03/23 08:10:24;;;;;;;35.80;22.93;;;8.60;99.90;;;;;;5055261;28;20398;-64
2021/03/23 08:13:01;;;;;;;27.90;20.37;;;8.70;99.90;;;;;;5016957;28;20415;-65
2021/03/23 08:15:50;;;;;;;33.13;22.43;;;8.80;99.90;;;;;;5054796;28;20383;-65
2021/03/23 08:18:46;;;;;;;33.43;22.83;;;8.90;99.90;;;;;;5054924;28;20414;-65
2021/03/23 08:21:32;;;;;;;36.13;21.97;;;8.90;99.90;;;;;;5052784;28;20386;-65
2021/03/23 08:24:12;;;;;;;28.27;20.27;;;9.00;99.90;;;;;;5043885;28;20439;-65
2021/03/23 08:27:04;;;;;;;29.37;19.70;;;9.00;99.90;;;;;;5052918;28;20482;-65
2021/03/23 08:30:07;;;;;;;30.10;21.40;;;8.80;99.90;;;;;;5054069;28;20490;-64
2021/03/23 08:32:46;;;;;;;31.60;22.90;;;9.10;99.90;;;;;;5054709;28;20392;-64
2021/03/23 08:35:20;;;;;;;33.13;22.93;;;9.00;99.90;;;;;;5054723;28;20396;-64
2021/03/23 08:38:34;;;;;;;35.77;22.90;;;9.00;99.90;;;;;;5053857;28;20440;-64
2021/03/23 08:41:13;;;;;;;39.33;23.13;;;8.90;99.90;;;;;;5050483;28;20426;-64
2021/03/23 08:43:43;;;;;;;32.27;23.20;;;9.20;99.90;;;;;;5035515;28;20410;-65
2021/03/23 08:46:21;;;;;;;31.73;23.07;;;9.20;99.90;;;;;;5054730;28;20527;-65
2021/03/23 08:48:48;;;;;;;28.90;19.37;;;9.30;99.90;;;;;;5054938;28;20980;-65
2021/03/23 08:51:19;;;;;;;25.97;18.90;;;9.50;99.90;;;;;;5054688;28;20461;-65
2021/03/23 08:53:48;;;;;;;28.20;20.90;;;9.80;99.90;;;;;;5054897;28;20389;-65
2021/03/23 08:56:14;;;;;;;31.83;19.80;;;9.80;99.90;;;;;;5054062;28;20408;-64
2021/03/23 08:58:47;;;;;;;33.10;21.07;;;10.00;99.90;;;;;;5052188;28;20458;-65
2021/03/23 09:01:38;;;;;;;25.53;20.07;;;10.00;99.90;;;;;;5054311;28;20193;-65
2021/03/23 09:04:03;;;;;;;29.37;20.33;;;10.10;99.90;;;;;;5042454;28;20445;-64
2021/03/23 09:06:48;;;;;;;30.40;22.13;;;10.20;99.90;;;;;;5053868;28;20440;-65
2021/03/23 09:09:20;;;;;;;23.50;18.70;;;10.60;99.90;;;;;;5053752;28;20559;-65
2021/03/23 09:12:04;;;;;;;31.53;20.77;;;10.70;99.90;;;;;;5053415;28;20520;-65
2021/03/23 09:14:33;;;;;;;25.80;18.13;;;10.50;99.90;;;;;;5055558;28;20781;-65
2021/03/23 09:16:58;;;;;;;32.10;18.60;;;10.60;99.90;;;;;;5053683;28;20401;-65
2021/03/23 09:19:47;;;;;;;28.50;18.53;;;10.60;99.90;;;;;;5053307;28;20474;-65
2021/03/23 09:22:27;;;;;;;26.30;18.13;;;10.70;99.90;;;;;;5053665;28;20541;-65
2021/03/23 09:25:24;;;;;;;31.47;17.13;;;11.20;99.90;;;;;;5053291;28;20392;-65
2021/03/23 09:27:50;;;;;;;18.17;13.90;;;10.90;99.90;;;;;;5052933;28;20436;-64
2021/03/23 09:30:46;;;;;;;22.37;15.03;;;10.80;99.90;;;;;;5052842;28;20921;-65
2021/03/23 09:33:26;;;;;;;26.07;14.77;;;10.80;99.90;;;;;;5053370;28;20154;-64
2021/03/23 09:36:08;;;;;;;14.97;10.90;;;10.80;99.90;;;;;;5053110;28;20485;-64
2021/03/23 09:38:40;;;;;;;14.37;10.97;;;10.70;99.90;;;;;;5099315;22;20518;-62
2021/03/23 09:41:23;;;;;;;19.67;12.43;;;10.40;99.90;;;;;;5114124;28;20406;-62
2021/03/23 09:44:13;;;;;;;11.53;8.77;;;10.60;99.90;;;;;;5113989;28;20520;-62
2021/03/23 09:46:45;;;;;;;15.50;10.83;;;10.50;99.40;;;;;;5113829;28;20441;-62
2021/03/23 09:49:18;;;;;;;14.30;11.60;;;10.40;99.80;;;;;;5113922;28;20430;-61
2021/03/23 09:52:10;;;;;;;14.00;10.50;;;10.40;99.50;;;;;;5113816;28;20386;-62
2021/03/23 09:55:00;;;;;;;13.17;9.70;;;10.90;99.20;;;;;;5098907;28;20794;-62
2021/03/23 09:57:31;;;;;;;14.63;10.60;;;11.00;98.60;;;;;;5112646;28;20386;-61
2021/03/23 10:00:00;;;;;;;12.53;9.43;;;10.80;98.40;;;;;;5113832;28;20414;-61
2021/03/23 10:02:30;;;;;;;14.30;9.60;;;11.00;98.50;;;;;;5114506;28;20486;-61
2021/03/23 10:04:56;;;;;;;14.97;10.27;;;10.90;98.60;;;;;;5114094;28;20951;-62
2021/03/23 10:07:37;;;;;;;16.07;9.90;;;10.90;98.50;;;;;;5113333;28;20934;-62
2021/03/23 10:10:12;;;;;;;11.40;9.10;;;10.80;98.50;;;;;;5116605;28;20414;-62
2021/03/23 10:12:39;;;;;;;11.27;8.47;;;10.60;98.70;;;;;;5121067;28;20409;-61
2021/03/23 10:15:18;;;;;;;10.77;7.53;;;10.50;98.10;;;;;;5121885;28;20482;-59
2021/03/23 10:17:44;;;;;;;7.90;6.50;;;10.30;97.50;;;;;;5121238;28;20492;-59
2021/03/23 10:20:13;;;;;;;10.20;8.07;;;10.20;98.30;;;;;;5123174;28;20397;-61
2021/03/23 10:22:40;;;;;;;12.00;7.23;;;10.20;97.90;;;;;;5123546;28;20402;-62
2021/03/23 10:25:15;;;;;;;15.83;8.67;;;10.20;97.60;;;;;;5121875;28;20417;-60
2021/03/23 10:27:40;;;;;;;10.53;6.67;;;10.40;97.70;;;;;;5101792;28;20471;-60
2021/03/23 10:30:11;;;;;;;8.80;6.80;;;10.60;97.00;;;;;;5119961;28;20430;-62
2021/03/23 10:32:52;;;;;;;7.90;6.50;;;10.70;96.80;;;;;;5120404;28;20521;-62
2021/03/23 10:35:17;;;;;;;10.50;7.53;;;10.50;96.90;;;;;;5120561;28;20393;-63
2021/03/23 10:37:43;;;;;;;10.17;7.20;;;10.60;97.20;;;;;;5120112;28;20404;-60
2021/03/23 10:40:34;;;;;;;9.33;7.20;;;10.70;96.60;;;;;;5119907;28;20579;-63
2021/03/23 10:43:00;;;;;;;10.17;7.53;;;10.60;96.50;;;;;;5110163;28;20271;-62
2021/03/23 10:45:44;;;;;;;7.60;5.83;;;10.50;97.10;;;;;;5120025;28;20528;-62
2021/03/23 10:48:36;;;;;;;9.03;7.17;;;10.50;96.30;;;;;;5120016;28;20241;-62
2021/03/23 10:51:21;;;;;;;7.03;6.20;;;10.40;97.10;;;;;;5120107;28;20467;-62
2021/03/23 10:54:05;;;;;;;6.57;5.20;;;10.30;96.80;;;;;;5120406;28;20390;-62
2021/03/23 10:56:39;;;;;;;8.40;6.10;;;10.40;96.50;;;;;;5119683;28;20402;-62
2021/03/23 10:59:06;;;;;;;10.27;7.53;;;10.30;97.10;;;;;;5101420;28;20441;-62
2021/03/23 11:01:31;;;;;;;8.90;7.13;;;10.30;97.00;;;;;;5120274;28;20838;-63
2021/03/23 11:04:10;;;;;;;7.73;6.10;;;10.40;97.20;;;;;;5120328;28;20446;-62
2021/03/23 11:06:38;;;;;;;8.47;6.77;;;10.70;96.30;;;;;;5119928;28;20218;-62
2021/03/23 11:09:08;;;;;;;10.03;8.20;;;10.70;96.50;;;;;;5119890;28;20946;-62
2021/03/23 11:11:34;;;;;;;10.60;8.33;;;10.40;97.10;;;;;;5119955;28;20410;-63
2021/03/23 11:14:00;;;;;;;12.20;8.30;;;10.30;97.70;;;;;;5115509;28;20390;-62
2021/03/23 11:16:34;;;;;;;11.53;8.20;;;10.10;97.70;;;;;;5088647;28;20830;-63
2021/03/23 11:19:06;;;;;;;11.60;7.90;;;10.30;97.60;;;;;;5099417;28;20257;-63
2021/03/23 11:21:35;;;;;;;9.33;6.90;;;10.30;97.40;;;;;;5093522;28;20411;-64
2021/03/23 11:24:02;;;;;;;8.67;7.23;;;10.60;96.70;;;;;;5096016;28;20762;-63
2021/03/23 11:26:30;;;;;;;11.43;6.33;;;10.60;96.40;;;;;;5095635;28;20454;-63
2021/03/23 11:28:56;;;;;;;11.80;7.30;;;10.60;96.50;;;;;;5095880;28;20485;-63
2021/03/23 11:31:26;;;;;;;9.30;7.30;;;10.60;96.80;;;;;;5096241;28;20404;-63
2021/03/23 11:33:51;;;;;;;10.17;7.77;;;10.80;96.70;;;;;;5096111;28;20426;-63
2021/03/23 11:36:19;;;;;;;8.77;7.03;;;10.70;96.70;;;;;;5077717;28;20916;-63
2021/03/23 11:38:45;;;;;;;9.83;8.30;;;10.70;96.80;;;;;;5067904;28;20746;-64
2021/03/23 11:41:33;;;;;;;7.00;6.00;;;10.80;96.20;;;;;;5095904;28;20411;-63
2021/03/23 11:44:30;;;;;;;11.60;7.60;;;10.50;95.80;;;;;;5096068;28;20533;-63
2021/03/23 11:47:15;;;;;;;8.43;6.80;;;10.40;96.30;;;;;;5093954;28;20986;-63
2021/03/23 11:49:46;;;;;;;9.37;6.20;;;11.00;96.10;;;;;;5095956;28;20423;-60
2021/03/23 11:52:13;;;;;;;8.47;6.70;;;10.90;95.20;;;;;;5095845;28;20391;-64
2021/03/23 11:54:38;;;;;;;10.20;7.10;;;11.00;95.80;;;;;;5095707;28;20414;-63
2021/03/23 11:57:05;;;;;;;10.00;7.93;;;11.10;95.40;;;;;;5095940;28;20783;-60
2021/03/23 11:59:30;;;;;;;10.33;8.70;;;10.90;96.10;;;;;;5095475;28;20560;-62
2021/03/23 12:01:56;;;;;;;13.90;9.33;;;10.80;96.40;;;;;;5095623;28;20498;-63
2021/03/23 12:04:22;;;;;;;10.00;8.00;;;10.80;96.70;;;;;;5095153;28;20583;-63
2021/03/23 12:07:23;;;;;;;9.37;8.40;;;10.70;96.60;;;;;;5095178;28;20239;-63
2021/03/23 12:10:04;;;;;;;15.00;9.37;;;10.80;96.70;;;;;;5095404;28;20259;-60
2021/03/23 12:12:46;;;;;;;14.00;10.17;;;10.90;96.80;;;;;;5095236;28;20444;-63
2021/03/23 12:15:22;;;;;;;10.40;8.87;;;10.70;96.60;;;;;;5094774;28;20560;-63
2021/03/23 12:17:51;;;;;;;11.50;9.80;;;10.60;97.10;;;;;;5095478;28;20429;-62
2021/03/23 12:20:21;;;;;;;10.33;8.80;;;10.70;96.80;;;;;;5095143;28;20443;-62
2021/03/23 12:22:48;;;;;;;10.33;8.60;;;10.60;97.00;;;;;;5095010;28;20915;-62
2021/03/23 12:25:15;;;;;;;16.60;8.77;;;10.50;96.50;;;;;;5094961;28;20516;-62
2021/03/23 12:27:41;;;;;;;12.43;9.80;;;10.80;96.80;;;;;;5098303;28;20410;-61
2021/03/23 12:30:08;;;;;;;15.00;11.00;;;10.70;96.30;;;;;;5114975;28;20422;-61
2021/03/23 12:32:34;;;;;;;14.27;10.00;;;10.80;96.90;;;;;;5114865;28;20937;-60
2021/03/23 12:35:04;;;;;;;15.60;9.43;;;10.80;96.70;;;;;;5115351;28;20410;-62
2021/03/23 12:37:29;;;;;;;12.37;9.40;;;10.80;96.50;;;;;;5115025;28;20402;-61
2021/03/23 12:39:55;;;;;;;12.00;10.40;;;10.70;96.70;;;;;;5114967;28;20435;-61
2021/03/23 12:42:25;;;;;;;10.70;9.53;;;10.70;96.30;;;;;;5096546;28;20637;-60
2021/03/23 12:44:51;;;;;;;13.73;10.33;;;10.70;96.70;;;;;;5115339;28;20430;-62
2021/03/23 12:47:16;;;;;;;12.00;9.87;;;10.50;96.90;;;;;;5115119;28;20457;-62
2021/03/23 12:49:42;;;;;;;11.47;9.10;;;10.70;97.10;;;;;;5114912;28;20187;-62
2021/03/23 12:52:11;;;;;;;11.67;9.23;;;11.10;96.80;;;;;;5115202;28;20573;-62
2021/03/23 12:54:38;;;;;;;12.40;9.50;;;11.30;96.20;;;;;;5114776;28;20408;-62
2021/03/23 12:57:17;;;;;;;9.17;8.00;;;11.30;96.30;;;;;;5114960;28;20431;-62
2021/03/23 12:59:44;;;;;;;12.03;9.47;;;11.30;95.80;;;;;;5096759;28;20445;-62
2021/03/23 13:02:15;;;;;;;13.30;9.50;;;11.30;95.70;;;;;;5115014;28;20495;-58
2021/03/23 13:04:42;;;;;;;12.47;9.40;;;11.20;95.50;;;;;;5115082;28;20391;-62